Time;durP1;ratioP1;P1;durP2;ratioP2;P2;SDS_P1;SDS_P2;PMS_P1;PMS_P2;Temp;Humidity;BMP_temperature;BMP_pressure;BME280_temperature;BME280_humidity;BME280_pressure;Samples;Min_cycle;Max_cycle;Signal;HPM_P1;HPM_P2
2022/01/22 00:01:28;;;;;;;5.28;3.30;;;;;;;2.36;87.59;102095.56;4982701;28;20034;-50
2022/01/22 00:03:54;;;;;;;6.07;2.85;;;;;;;2.39;86.62;102099.72;4986064;28;20506;-49
2022/01/22 00:06:19;;;;;;;5.82;2.65;;;;;;;2.41;86.79;102105.66;4984390;28;20026;-50
2022/01/22 00:08:45;;;;;;;6.25;3.22;;;;;;;2.41;86.70;102103.03;4984504;28;20387;-51
2022/01/22 00:11:10;;;;;;;6.45;3.20;;;;;;;2.36;88.54;102111.44;4981344;28;20045;-49
2022/01/22 00:16:20;;;;;;;5.10;3.25;;;;;;;2.34;88.92;102115.25;4983016;28;20482;-49
2022/01/22 00:18:45;;;;;;;7.20;3.20;;;;;;;2.35;88.94;102109.78;4983618;28;20053;-51
2022/01/22 00:21:11;;;;;;;6.25;3.78;;;;;;;2.38;89.18;102104.19;4982822;28;20037;-50
2022/01/22 00:23:39;;;;;;;8.38;3.90;;;;;;;2.37;89.60;102109.63;4984448;28;20050;-49
2022/01/22 00:26:04;;;;;;;7.53;4.05;;;;;;;2.34;90.29;102109.97;4982468;28;20034;-50
2022/01/22 00:28:30;;;;;;;6.18;3.67;;;;;;;2.43;88.33;102112.44;4983731;28;20222;-49
2022/01/22 00:30:55;;;;;;;5.80;3.95;;;;;;;2.48;87.85;102108.47;4983581;28;20081;-50
2022/01/22 00:33:21;;;;;;;7.55;4.13;;;;;;;2.43;89.00;102111.63;4982906;28;20030;-50
2022/01/22 00:35:46;;;;;;;7.70;4.35;;;;;;;2.39;90.55;102110.28;4983614;28;20025;-50
2022/01/22 00:38:14;;;;;;;9.15;4.72;;;;;;;2.40;89.88;102106.66;4982421;28;20039;-50
2022/01/22 00:40:40;;;;;;;7.80;4.53;;;;;;;2.42;89.61;102102.84;4983237;28;20052;-48
2022/01/22 00:43:05;;;;;;;6.90;3.90;;;;;;;2.45;89.61;102104.34;4984011;28;20053;-50
2022/01/22 00:45:31;;;;;;;8.13;3.97;;;;;;;2.44;89.64;102113.28;4982926;28;20037;-51
2022/01/22 00:47:56;;;;;;;5.72;3.85;;;;;;;2.48;88.59;102106.66;4985535;28;20070;-48
2022/01/22 00:50:25;;;;;;;8.43;4.60;;;;;;;2.51;88.15;102116.91;4986397;28;20092;-50
2022/01/22 00:52:51;;;;;;;7.82;3.92;;;;;;;2.49;88.33;102115.44;4987967;28;20113;-49
2022/01/22 00:55:18;;;;;;;9.80;4.68;;;;;;;2.45;88.63;102111.47;4985900;28;20072;-48
2022/01/22 00:57:44;;;;;;;8.30;4.57;;;;;;;2.47;88.71;102122.69;4983436;28;20376;-46
2022/01/22 01:00:13;;;;;;;7.95;4.47;;;;;;;2.49;88.62;102126.00;4985748;28;20026;-50
2022/01/22 01:02:39;;;;;;;7.65;4.57;;;;;;;2.52;88.18;102129.19;4987310;28;20041;-46
2022/01/22 01:05:08;;;;;;;8.18;4.55;;;;;;;2.45;89.05;102136.09;4989693;28;20130;-50
2022/01/22 01:07:33;;;;;;;9.20;5.25;;;;;;;2.45;89.20;102141.38;4986585;28;20555;-47
2022/01/22 01:09:59;;;;;;;9.10;5.13;;;;;;;2.53;88.45;102141.44;4986311;28;20102;-49
2022/01/22 01:12:25;;;;;;;13.52;4.93;;;;;;;2.51;88.69;102140.72;4985955;28;20662;-48
2022/01/22 01:15:09;;;;;;;9.05;4.80;;;;;;;2.54;88.01;102144.91;4986284;28;20105;-47
2022/01/22 01:33:48;;;;;;;8.95;4.88;;;;;;;2.39;89.11;102137.56;4986517;28;20119;-48
2022/01/22 01:36:15;;;;;;;10.70;4.50;;;;;;;2.41;88.59;102132.13;4985025;28;20484;-47
2022/01/22 01:38:45;;;;;;;8.63;4.85;;;;;;;2.43;88.50;102143.38;4986577;28;20068;-47
2022/01/22 01:41:22;;;;;;;7.70;4.45;;;;;;;2.45;88.39;102146.69;4984864;28;20029;-47
2022/01/22 01:43:47;;;;;;;12.05;4.53;;;;;;;2.42;89.47;102147.00;4986187;28;20030;-48
2022/01/22 01:46:13;;;;;;;12.52;5.38;;;;;;;2.39;89.55;102142.03;4984806;28;20100;-46
2022/01/22 01:48:42;;;;;;;11.38;4.60;;;;;;;2.38;89.50;102137.75;4985968;28;20135;-46
2022/01/22 01:51:07;;;;;;;11.95;4.78;;;;;;;2.39;89.25;102142.88;4985201;28;20439;-48
2022/01/22 01:54:02;;;;;;;12.38;5.60;;;;;;;2.45;89.10;102156.44;4986265;28;20029;-46
2022/01/22 01:59:03;;;;;;;10.07;4.28;;;;;;;2.41;90.20;102148.00;4982839;28;20044;-50
2022/01/22 02:01:28;;;;;;;9.50;4.55;;;;;;;2.39;90.39;102155.25;4985329;28;20415;-46
2022/01/22 02:03:54;;;;;;;10.20;4.75;;;;;;;2.36;90.33;102158.22;4986005;28;20422;-49
2022/01/22 02:06:19;;;;;;;12.50;5.07;;;;;;;2.31;91.38;102166.63;4983732;28;20033;-46
2022/01/22 02:08:45;;;;;;;15.23;4.68;;;;;;;2.38;89.96;102167.66;4986266;28;20097;-49
2022/01/22 02:11:13;;;;;;;9.52;4.65;;;;;;;2.41;89.85;102172.63;4984129;28;20034;-48
2022/01/22 02:14:00;;;;;;;9.13;4.10;;;;;;;2.40;89.97;102175.44;4985806;28;20023;-47
2022/01/22 02:24:53;;;;;;;7.80;4.43;;;;;;;2.38;90.28;102193.28;4983268;28;20041;-47
2022/01/22 02:27:19;;;;;;;8.27;3.80;;;;;;;2.44;89.22;102195.28;4984009;28;20485;-47
2022/01/22 02:29:45;;;;;;;11.85;4.03;;;;;;;2.38;90.20;102196.75;4986247;28;20050;-47
2022/01/22 02:35:06;;;;;;;9.98;4.45;;;;;;;2.41;89.38;102206.19;4983124;28;20395;-47
2022/01/22 02:37:36;;;;;;;12.80;4.60;;;;;;;2.43;88.89;102207.69;4981032;28;20044;-48
2022/01/22 02:40:09;;;;;;;8.90;3.83;;;;;;;2.40;88.56;102207.19;4980528;28;20478;-48
2022/01/22 02:42:35;;;;;;;9.85;3.65;;;;;;;2.34;88.75;102213.94;4985846;28;20037;-49
2022/01/22 02:45:07;;;;;;;9.63;3.80;;;;;;;2.38;88.14;102220.56;4981434;28;20030;-50
2022/01/22 02:47:32;;;;;;;9.90;3.50;;;;;;;2.35;88.14;102215.59;4979483;28;20026;-47
2022/01/22 02:49:58;;;;;;;11.63;3.55;;;;;;;2.29;88.05;102220.66;4984210;28;20361;-47
2022/01/22 02:52:24;;;;;;;5.78;2.97;;;;;;;2.33;87.96;102224.66;4982625;28;20042;-46
2022/01/22 02:54:50;;;;;;;11.40;3.65;;;;;;;2.31;88.01;102231.91;4984402;28;20456;-48
2022/01/22 02:57:15;;;;;;;4.75;2.85;;;;;;;2.33;87.76;102237.88;4983688;28;20064;-48
2022/01/22 02:59:41;;;;;;;7.10;2.83;;;;;;;2.31;87.79;102239.84;4985608;28;20126;-46
2022/01/22 03:02:09;;;;;;;5.97;2.58;;;;;;;2.32;87.90;102246.78;4983509;28;20069;-47
2022/01/22 03:04:34;;;;;;;8.52;3.35;;;;;;;2.32;87.87;102237.03;4980307;28;20022;-46
2022/01/22 03:07:00;;;;;;;6.35;3.03;;;;;;;2.32;87.89;102246.78;4982436;28;20034;-46
2022/01/22 03:09:29;;;;;;;6.80;2.78;;;;;;;2.33;87.74;102245.81;4981255;28;20026;-46
2022/01/22 03:27:38;;;;;;;6.95;3.70;;;;;;;2.35;87.19;102272.97;4981921;28;20037;-46
2022/01/22 03:30:05;;;;;;;6.07;3.20;;;;;;;2.33;86.59;102277.53;4984545;28;20034;-46
2022/01/22 03:32:38;;;;;;;8.38;3.47;;;;;;;2.39;86.42;102292.81;4985470;28;20105;-46
2022/01/22 03:35:13;;;;;;;6.45;2.63;;;;;;;2.36;86.58;102291.31;4983658;28;20080;-46
2022/01/22 03:37:41;;;;;;;7.70;2.83;;;;;;;2.31;87.15;102303.31;4985837;28;20022;-47
2022/01/22 03:40:09;;;;;;;7.88;3.25;;;;;;;2.31;87.18;102306.81;4984681;28;20027;-47
2022/01/22 03:42:35;;;;;;;8.07;2.67;;;;;;;2.36;86.81;102316.94;4985664;28;20061;-46
2022/01/22 03:45:03;;;;;;;13.05;3.45;;;;;;;2.35;86.89;102324.03;4983581;28;20034;-46
2022/01/22 03:47:29;;;;;;;9.77;2.85;;;;;;;2.39;86.74;102322.75;4978981;28;20022;-46
2022/01/22 03:49:54;;;;;;;7.38;2.90;;;;;;;2.39;86.27;102325.38;4979356;28;20022;-47
2022/01/22 03:52:20;;;;;;;7.68;2.67;;;;;;;2.40;86.43;102334.97;4984491;28;20026;-48
2022/01/22 03:54:46;;;;;;;7.88;2.58;;;;;;;2.42;86.52;102337.47;4980626;28;20531;-49
2022/01/22 03:57:11;;;;;;;7.07;2.45;;;;;;;2.45;86.21;102347.72;4981813;28;20512;-46
2022/01/22 03:59:37;;;;;;;8.05;2.92;;;;;;;2.44;86.26;102356.66;4984461;28;20682;-46
2022/01/22 04:04:49;;;;;;;6.55;2.75;;;;;;;2.41;86.54;102356.97;4984200;28;20105;-46
2022/01/22 04:09:47;;;;;;;9.65;2.53;;;;;;;2.32;86.45;102364.00;4984065;28;20049;-46
2022/01/22 04:12:16;;;;;;;7.28;2.22;;;;;;;2.31;86.08;102378.22;4983844;28;20519;-46
2022/01/22 04:14:55;;;;;;;8.10;2.17;;;;;;;2.28;86.09;102377.69;4984329;28;20034;-47
2022/01/22 04:25:22;;;;;;;4.70;1.85;;;;;;;2.19;86.40;102405.06;4988051;28;20057;-46
2022/01/22 04:27:48;;;;;;;7.03;1.92;;;;;;;2.15;86.23;102414.28;4986219;28;20409;-47
2022/01/22 04:30:14;;;;;;;8.07;2.00;;;;;;;2.12;86.44;102423.34;4987350;28;20037;-47
2022/01/22 04:32:40;;;;;;;5.80;2.00;;;;;;;2.10;86.21;102415.56;4987336;28;20022;-47
2022/01/22 04:35:06;;;;;;;6.65;2.15;;;;;;;2.07;86.21;102423.81;4986503;28;20025;-46
2022/01/22 04:37:31;;;;;;;5.03;2.00;;;;;;;2.07;85.93;102423.81;4988197;28;20502;-46
2022/01/22 04:39:57;;;;;;;4.65;1.60;;;;;;;2.07;86.17;102434.38;4986005;28;20034;-46
2022/01/22 04:42:23;;;;;;;7.45;2.15;;;;;;;2.07;86.23;102436.19;4987950;28;20504;-46
2022/01/22 04:45:01;;;;;;;10.38;3.10;;;;;;;2.05;86.10;102440.81;4986625;28;20053;-46
2022/01/22 04:55:25;;;;;;;5.95;3.05;;;;;;;2.02;85.59;102452.53;4948348;28;20189;-46
2022/01/22 04:57:50;;;;;;;2.65;1.20;;;;;;;2.03;85.76;102458.63;4985897;28;20117;-47
2022/01/22 05:00:17;;;;;;;6.07;2.17;;;;;;;2.02;85.43;102456.97;4986091;28;20045;-46
2022/01/22 05:02:42;;;;;;;4.20;1.70;;;;;;;2.01;85.36;102465.88;4989670;28;20073;-46
2022/01/22 05:05:09;;;;;;;4.93;1.85;;;;;;;2.02;85.12;102478.97;4985935;28;20526;-46
2022/01/22 05:07:35;;;;;;;5.35;2.08;;;;;;;2.00;85.11;102474.81;4987183;28;20040;-46
2022/01/22 05:10:02;;;;;;;9.77;2.13;;;;;;;1.97;85.25;102472.44;4985562;28;20029;-46
2022/01/22 05:12:28;;;;;;;5.22;1.50;;;;;;;1.91;85.04;102476.50;4986620;28;20030;-46
2022/01/22 05:14:53;;;;;;;7.72;1.77;;;;;;;1.92;85.16;102482.63;4986067;28;20373;-47
2022/01/22 05:17:19;;;;;;;3.33;0.95;;;;;;;1.87;84.96;102477.78;4987364;28;20030;-46
2022/01/22 05:19:52;;;;;;;2.88;1.20;;;;;;;1.88;84.90;102481.28;4986742;28;20435;-46
2022/01/22 05:22:49;;;;;;;4.50;1.17;;;;;;;1.86;84.72;102485.88;4987190;28;20045;-46
2022/01/22 05:25:21;;;;;;;5.78;1.02;;;;;;;1.82;84.64;102477.41;4986325;28;20032;-46
2022/01/22 05:28:05;;;;;;;2.30;1.08;;;;;;;1.82;84.69;102480.06;4986722;28;20030;-46
2022/01/22 05:38:21;;;;;;;7.72;3.97;;;;;;;1.73;84.24;102494.16;4987486;28;20036;-46
2022/01/22 05:40:47;;;;;;;8.65;3.67;;;;;;;1.70;84.17;102497.09;4987038;28;20038;-46
2022/01/22 05:43:12;;;;;;;7.32;3.85;;;;;;;1.65;84.18;102494.91;4985544;28;21448;-46
2022/01/22 05:45:38;;;;;;;6.15;3.30;;;;;;;1.63;84.16;102504.78;4986566;28;20115;-46
2022/01/22 05:48:04;;;;;;;7.88;3.50;;;;;;;1.59;84.39;102502.56;4985426;28;20061;-46
2022/01/22 05:50:43;;;;;;;8.60;3.47;;;;;;;1.56;84.13;102506.31;4987180;28;20411;-46
2022/01/22 05:53:20;;;;;;;7.97;3.58;;;;;;;1.57;83.84;102515.06;4985538;28;20034;-46
2022/01/22 06:01:15;;;;;;;6.22;2.50;;;;;;;1.39;83.88;102528.22;4986635;28;20172;-46
2022/01/22 06:03:41;;;;;;;4.93;2.05;;;;;;;1.36;83.83;102531.97;4986359;28;20120;-46
2022/01/22 06:06:06;;;;;;;4.70;2.33;;;;;;;1.32;83.68;102545.63;4985201;28;20160;-46
2022/01/22 06:08:40;;;;;;;4.18;1.30;;;;;;;1.24;83.52;102541.03;4985928;28;20030;-47
2022/01/22 06:11:10;;;;;;;4.32;1.30;;;;;;;1.16;83.52;102551.50;4985996;28;20027;-46
2022/01/22 06:13:46;;;;;;;3.65;1.38;;;;;;;1.08;83.70;102556.66;4986715;28;20033;-46
2022/01/22 06:16:14;;;;;;;4.55;2.63;;;;;;;1.06;83.97;102563.88;4985143;28;20086;-46
2022/01/22 06:18:41;;;;;;;4.22;1.05;;;;;;;1.05;84.18;102567.47;4985383;28;20085;-46
2022/01/22 06:21:09;;;;;;;3.13;1.00;;;;;;;1.06;84.21;102577.91;4984799;28;20018;-46
2022/01/22 06:23:36;;;;;;;2.65;1.25;;;;;;;1.05;84.17;102578.88;4986185;28;20080;-46
2022/01/22 06:26:02;;;;;;;3.25;1.20;;;;;;;1.07;84.14;102578.72;4984264;28;20566;-46
2022/01/22 06:28:28;;;;;;;3.60;1.30;;;;;;;1.02;84.23;102591.53;4986128;28;20472;-46
2022/01/22 06:30:54;;;;;;;4.47;0.80;;;;;;;1.01;84.05;102601.25;4983942;28;20018;-47
2022/01/22 06:33:20;;;;;;;2.55;1.00;;;;;;;1.00;83.80;102601.41;4985893;28;20419;-46
2022/01/22 06:35:45;;;;;;;2.38;0.75;;;;;;;1.00;83.90;102607.50;4985300;28;20026;-46
2022/01/22 06:38:11;;;;;;;1.58;0.88;;;;;;;1.01;84.07;102611.81;4984926;28;20061;-46
2022/01/22 06:43:03;;;;;;;3.53;1.90;;;;;;;0.96;83.43;102611.41;4984846;28;20026;-47
2022/01/22 06:45:29;;;;;;;5.65;2.10;;;;;;;0.84;82.89;102618.63;4984499;28;20471;-46
2022/01/22 06:47:54;;;;;;;2.42;1.77;;;;;;;0.50;83.36;102630.50;4984194;28;20054;-47
2022/01/22 06:50:21;;;;;;;6.68;2.15;;;;;;;0.50;83.74;102635.78;4985375;28;20022;-46
2022/01/22 06:52:47;;;;;;;2.42;1.65;;;;;;;0.42;84.01;102639.13;4985350;28;20415;-46
2022/01/22 06:55:16;;;;;;;2.53;1.20;;;;;;;0.35;84.18;102647.69;4984612;28;20034;-46
2022/01/22 06:57:42;;;;;;;3.15;1.58;;;;;;;0.38;84.50;102642.16;4985663;28;20057;-46
2022/01/22 07:00:08;;;;;;;4.40;1.50;;;;;;;0.42;84.45;102654.09;4984283;28;20527;-46
2022/01/22 07:02:34;;;;;;;3.00;1.20;;;;;;;0.49;84.53;102649.94;4985287;28;20507;-46
2022/01/22 07:04:59;;;;;;;2.42;1.42;;;;;;;0.52;84.22;102639.13;4983326;28;20180;-46
2022/01/22 07:07:25;;;;;;;2.40;1.15;;;;;;;0.58;83.99;102649.16;4985516;28;20030;-45
2022/01/22 07:09:50;;;;;;;5.50;1.40;;;;;;;0.62;83.89;102652.34;4985269;28;20101;-47
2022/01/22 07:12:16;;;;;;;4.53;1.85;;;;;;;0.62;83.92;102653.19;4985112;28;20030;-46
2022/01/22 07:14:45;;;;;;;2.97;1.60;;;;;;;0.64;83.77;102658.31;4990062;28;20399;-49
2022/01/22 07:17:12;;;;;;;2.83;1.65;;;;;;;0.65;83.48;102659.97;4983674;28;20082;-46
2022/01/22 07:19:40;;;;;;;2.90;1.80;;;;;;;0.66;83.25;102657.19;4984809;28;20022;-46
2022/01/22 07:22:09;;;;;;;3.80;1.65;;;;;;;0.62;82.80;102665.53;4982853;28;20413;-46
2022/01/22 07:24:39;;;;;;;3.20;1.60;;;;;;;0.62;83.11;102663.72;4984656;28;20109;-46
2022/01/22 07:27:05;;;;;;;3.70;1.63;;;;;;;0.62;83.24;102662.91;4981979;28;20412;-46
2022/01/22 07:29:31;;;;;;;6.15;1.67;;;;;;;0.62;82.98;102663.72;4983346;28;20358;-46
2022/01/22 07:32:00;;;;;;;3.25;1.48;;;;;;;0.62;82.84;102658.44;4982402;28;20076;-46
2022/01/22 07:34:26;;;;;;;4.22;1.50;;;;;;;0.65;82.67;102662.63;4983905;28;20484;-45
2022/01/22 07:36:51;;;;;;;3.72;1.52;;;;;;;0.62;82.74;102663.72;4984175;28;20109;-46
2022/01/22 07:39:17;;;;;;;3.20;1.40;;;;;;;0.61;82.38;102664.69;4985167;28;20039;-46
2022/01/22 07:41:43;;;;;;;3.10;1.50;;;;;;;0.59;82.20;102671.91;4985311;28;20443;-46
2022/01/22 07:44:08;;;;;;;4.10;1.52;;;;;;;0.60;82.52;102674.41;4984303;28;20034;-45
2022/01/22 07:46:34;;;;;;;3.10;1.48;;;;;;;0.56;82.30;102677.47;4984500;28;20536;-45
2022/01/22 07:48:59;;;;;;;2.72;1.63;;;;;;;0.54;82.60;102684.69;4983537;28;20237;-46
2022/01/22 07:51:25;;;;;;;4.35;1.83;;;;;;;0.61;82.49;102685.81;4984864;28;20084;-46
2022/01/22 07:53:50;;;;;;;3.97;1.60;;;;;;;0.70;82.42;102684.97;4984322;28;20018;-45
2022/01/22 07:56:16;;;;;;;3.55;1.90;;;;;;;0.80;82.42;102687.63;4984265;28;20041;-46
2022/01/22 07:58:41;;;;;;;3.28;1.98;;;;;;;0.79;82.02;102688.63;4986901;28;20492;-46
2022/01/22 08:01:08;;;;;;;5.80;2.88;;;;;;;0.77;82.08;102691.41;4985083;28;20096;-46
2022/01/22 08:03:33;;;;;;;4.43;2.45;;;;;;;0.74;81.91;102707.50;4982875;28;20027;-47
2022/01/22 08:05:59;;;;;;;9.10;3.20;;;;;;;0.68;82.41;102708.03;4984846;28;20033;-46
2022/01/22 08:08:24;;;;;;;9.02;3.10;;;;;;;0.67;82.44;102716.91;4985437;28;20034;-46
2022/01/22 08:10:50;;;;;;;9.73;3.42;;;;;;;0.73;82.30;102711.13;4987761;28;20054;-46
2022/01/22 08:13:18;;;;;;;7.28;3.17;;;;;;;0.80;82.33;102714.88;4988672;28;21407;-47
2022/01/22 08:15:44;;;;;;;6.43;3.10;;;;;;;0.89;82.26;102718.47;4984795;28;20067;-46
2022/01/22 08:18:09;;;;;;;4.20;2.60;;;;;;;0.93;81.93;102711.16;4986460;28;20499;-46
2022/01/22 08:20:35;;;;;;;8.00;3.13;;;;;;;0.95;81.75;102714.47;4987723;28;20068;-46
2022/01/22 08:23:00;;;;;;;4.57;2.13;;;;;;;0.96;81.72;102719.63;4987830;28;20340;-46
2022/01/22 08:25:29;;;;;;;5.97;3.13;;;;;;;0.97;81.40;102729.19;4988326;28;20357;-48
2022/01/22 08:30:33;;;;;;;5.63;3.10;;;;;;;0.94;81.62;102734.75;4987261;28;20129;-46
2022/01/22 08:38:17;;;;;;;6.13;3.53;;;;;;;0.81;81.88;102755.28;4985062;28;20041;-46
2022/01/22 08:40:43;;;;;;;6.70;3.15;;;;;;;0.78;82.07;102750.28;4986089;28;20034;-46
2022/01/22 08:43:09;;;;;;;4.68;2.65;;;;;;;0.73;82.39;102758.59;4987777;28;20018;-46
2022/01/22 08:45:36;;;;;;;7.47;3.65;;;;;;;0.73;82.45;102761.25;4984900;28;20397;-46
2022/01/22 08:48:03;;;;;;;6.80;2.90;;;;;;;0.74;82.58;102755.00;4984417;28;20115;-46
2022/01/22 08:50:28;;;;;;;8.00;3.17;;;;;;;0.65;82.94;102771.63;4984268;28;20380;-46
2022/01/22 08:52:53;;;;;;;9.95;3.63;;;;;;;0.70;83.21;102784.41;4986864;28;20034;-45
2022/01/22 08:55:19;;;;;;;6.07;3.40;;;;;;;0.66;83.04;102781.19;4987299;28;20030;-46
2022/01/22 08:57:49;;;;;;;7.00;2.95;;;;;;;0.64;83.20;102780.50;4986946;28;20400;-46
2022/01/22 09:00:16;;;;;;;7.40;3.72;;;;;;;0.71;82.95;102792.19;4985728;28;20038;-46
2022/01/22 09:02:44;;;;;;;5.95;2.85;;;;;;;0.78;82.82;102779.31;4979517;28;20042;-46
2022/01/22 09:05:09;;;;;;;5.38;3.38;;;;;;;0.85;82.64;102783.91;4980608;28;20113;-45
2022/01/22 09:07:35;;;;;;;18.35;3.28;;;;;;;0.90;82.47;102776.44;4975977;28;20028;-46
2022/01/22 09:10:01;;;;;;;7.50;3.72;;;;;;;0.94;82.23;102782.28;4983980;28;20487;-47
2022/01/22 09:12:26;;;;;;;6.05;3.70;;;;;;;0.98;81.95;102788.09;4983259;28;20061;-46
2022/01/22 09:14:52;;;;;;;5.25;2.95;;;;;;;1.07;82.03;102798.66;4982817;28;20037;-46
2022/01/22 09:17:18;;;;;;;6.30;2.72;;;;;;;1.22;81.78;102799.13;4982207;28;20500;-46
2022/01/22 09:19:46;;;;;;;7.00;3.05;;;;;;;1.33;81.64;102809.56;4983375;28;20180;-46
2022/01/22 09:22:12;;;;;;;6.65;3.72;;;;;;;1.39;81.43;102808.19;4984475;28;20520;-46
2022/01/22 09:24:37;;;;;;;6.10;3.28;;;;;;;1.41;81.26;102817.63;4982043;28;20464;-46
2022/01/22 09:27:05;;;;;;;7.53;3.38;;;;;;;1.51;81.17;102818.50;4982887;28;20063;-46
2022/01/22 09:29:31;;;;;;;7.57;3.15;;;;;;;1.59;81.36;102816.97;4984601;28;20567;-46
2022/01/22 09:31:56;;;;;;;6.65;2.90;;;;;;;1.57;81.30;102829.47;4982078;28;20224;-46
2022/01/22 09:34:22;;;;;;;6.45;3.25;;;;;;;1.77;81.11;102828.50;4984519;28;20300;-48
2022/01/22 09:36:48;;;;;;;4.35;2.42;;;;;;;1.94;81.04;102841.03;4983655;28;20473;-48
2022/01/22 09:39:14;;;;;;;4.13;2.05;;;;;;;2.07;80.38;102846.88;4980200;28;20033;-46
2022/01/22 09:41:39;;;;;;;2.42;1.60;;;;;;;2.05;80.41;102843.53;4980172;28;20065;-48
2022/01/22 09:44:06;;;;;;;3.67;1.92;;;;;;;2.07;80.32;102843.38;4984965;28;20061;-48
2022/01/22 09:46:32;;;;;;;3.00;1.50;;;;;;;2.05;80.08;102842.69;4983588;28;20499;-50
2022/01/22 09:48:58;;;;;;;4.82;1.50;;;;;;;2.00;79.96;102837.84;4985213;28;20038;-46
2022/01/22 09:51:24;;;;;;;5.57;1.50;;;;;;;2.01;80.30;102830.75;5008045;22;20498;-46
2022/01/22 09:53:50;;;;;;;2.35;1.38;;;;;;;1.88;79.72;102843.41;5022413;28;20063;-46
2022/01/22 09:56:21;;;;;;;3.67;1.35;;;;;;;1.88;80.18;102844.22;5024104;28;20035;-46
2022/01/22 09:58:47;;;;;;;2.97;1.27;;;;;;;1.92;80.19;102842.97;5024072;28;20083;-45
2022/01/22 10:01:28;;;;;;;3.30;1.20;;;;;;;1.89;80.04;102853.84;5021037;28;20037;-48
2022/01/22 10:04:00;;;;;;;4.20;2.13;;;;;;;1.96;80.16;102846.16;5017341;28;20029;-46
2022/01/22 10:06:30;;;;;;;2.63;0.90;;;;;;;1.96;80.04;102844.34;5019013;28;20033;-46
2022/01/22 10:09:13;;;;;;;4.07;1.00;;;;;;;2.00;79.78;102848.41;5039353;28;20032;-46
2022/01/22 10:11:40;;;;;;;6.13;1.13;;;;;;;2.00;79.28;102845.78;5023103;28;20346;-47
2022/01/22 10:14:06;;;;;;;4.15;1.25;;;;;;;2.01;79.40;102855.38;5020651;28;20498;-48
2022/01/22 10:16:37;;;;;;;3.40;1.38;;;;;;;2.13;79.56;102850.75;5022536;28;20060;-46
2022/01/22 10:19:16;;;;;;;4.80;1.73;;;;;;;2.08;78.72;102853.00;5022504;28;20025;-46
2022/01/22 10:21:49;;;;;;;3.30;1.15;;;;;;;2.06;79.01;102852.28;5020500;28;20051;-45
2022/01/22 10:24:30;;;;;;;2.53;1.30;;;;;;;2.10;79.18;102836.00;5023660;28;20029;-46
2022/01/22 10:30:03;;;;;;;3.08;1.00;;;;;;;2.09;79.12;102833.50;5021777;28;20078;-46
2022/01/22 10:35:29;;;;;;;3.33;1.00;;;;;;;2.17;78.51;102846.88;5009906;28;20065;-46
2022/01/22 10:37:56;;;;;;;2.35;0.90;;;;;;;2.15;78.26;102853.25;5021426;28;20485;-46
2022/01/22 10:40:35;;;;;;;2.85;1.08;;;;;;;2.23;78.70;102856.88;5020370;28;20391;-46
2022/01/22 10:43:15;;;;;;;4.10;1.10;;;;;;;2.03;77.74;102856.06;5020035;28;20048;-46
2022/01/22 10:45:41;;;;;;;1.92;0.93;;;;;;;2.19;78.52;102858.13;5022464;28;20486;-45
2022/01/22 10:48:33;;;;;;;2.63;1.10;;;;;;;2.31;78.51;102864.09;5021317;28;20262;-46
2022/01/22 10:51:13;;;;;;;4.25;1.25;;;;;;;2.50;78.00;102864.03;5018492;28;20056;-46
2022/01/22 10:53:50;;;;;;;4.28;1.48;;;;;;;2.53;77.14;102869.06;5018626;28;20033;-49
2022/01/22 10:56:19;;;;;;;5.97;1.60;;;;;;;2.58;77.38;102872.13;5024220;28;20033;-46
2022/01/22 10:59:03;;;;;;;3.45;1.52;;;;;;;2.70;77.20;102865.69;5021015;28;20021;-47
2022/01/22 11:01:31;;;;;;;3.33;0.93;;;;;;;2.86;76.72;102862.38;5020608;28;20029;-48
2022/01/22 11:04:08;;;;;;;2.55;0.95;;;;;;;2.93;76.18;102862.66;5019838;28;20041;-46
2022/01/22 11:06:33;;;;;;;2.53;0.85;;;;;;;3.07;75.89;102862.19;5017872;28;20032;-47
2022/01/22 11:08:59;;;;;;;5.03;1.00;;;;;;;3.21;75.71;102866.97;5010742;28;20371;-46
2022/01/22 11:11:25;;;;;;;4.60;1.48;;;;;;;3.44;75.62;102869.22;5018191;28;20029;-47
2022/01/22 11:13:51;;;;;;;4.18;1.48;;;;;;;3.56;74.25;102862.72;5020823;28;20556;-47
2022/01/22 11:16:17;;;;;;;5.60;1.80;;;;;;;3.69;74.28;102860.53;5022120;28;20036;-46
2022/01/22 11:18:46;;;;;;;4.40;1.55;;;;;;;3.68;73.43;102856.22;5020305;28;20056;-46
2022/01/22 11:21:12;;;;;;;1.77;1.00;;;;;;;3.87;73.47;102863.19;5020534;28;20543;-46
2022/01/22 11:23:38;;;;;;;1.42;0.95;;;;;;;4.15;73.09;102858.63;5022611;28;20108;-48
2022/01/22 11:26:04;;;;;;;3.17;1.42;;;;;;;4.35;72.15;102868.06;5021638;28;20075;-46
2022/01/22 11:28:29;;;;;;;5.25;2.10;;;;;;;4.42;72.09;102868.25;5019468;28;20364;-46
2022/01/22 11:30:58;;;;;;;4.05;1.73;;;;;;;4.33;71.60;102867.38;5019797;28;20099;-47
2022/01/22 11:33:25;;;;;;;2.50;1.30;;;;;;;4.30;70.51;102866.84;5021050;28;20644;-46
2022/01/22 11:36:14;;;;;;;4.72;1.63;;;;;;;4.45;71.02;102867.94;5022626;28;20053;-46
2022/01/22 11:38:48;;;;;;;5.35;2.50;;;;;;;4.67;70.92;102869.22;5021310;28;20441;-46
2022/01/22 11:41:19;;;;;;;4.07;1.77;;;;;;;4.85;71.05;102878.00;5019331;28;20037;-46
2022/01/22 11:46:33;;;;;;;5.35;1.73;;;;;;;5.05;68.58;102874.09;5018300;28;20042;-46
2022/01/22 11:49:19;;;;;;;5.95;3.58;;;;;;;5.08;68.69;102873.78;5018984;28;20108;-46
2022/01/22 11:51:47;;;;;;;;;;;;;;;5.03;67.81;102884.06;5023086;28;20055;-46
2022/01/22 11:54:14;;;;;;;13.77;6.82;;;;;;;5.10;69.05;102877.09;5018864;28;19917;-46
2022/01/22 11:56:43;;;;;;;10.43;5.55;;;;;;;5.03;68.32;102883.22;5018247;28;20486;-47
2022/01/22 11:59:11;;;;;;;7.25;3.58;;;;;;;5.12;69.13;102880.44;5021078;28;20052;-47
2022/01/22 12:01:45;;;;;;;5.20;2.70;;;;;;;5.15;68.94;102881.94;5019420;28;20132;-47
2022/01/22 12:04:14;;;;;;;4.20;2.20;;;;;;;5.03;67.66;102881.41;5022668;28;20033;-46
2022/01/22 12:07:00;;;;;;;3.38;1.98;;;;;;;4.89;67.15;102889.97;5029662;28;21245;-47
2022/01/22 12:09:26;;;;;;;;;;;;;;;4.41;66.19;102888.66;5018319;28;20029;-46
2022/01/22 12:14:50;;;;;;;2.80;1.08;;;;;;;4.45;68.32;102887.34;5020317;28;20032;-47
2022/01/22 12:17:27;;;;;;;1.95;0.90;;;;;;;4.51;68.88;102891.22;5034547;28;20640;-47
2022/01/22 12:22:34;;;;;;;4.13;1.10;;;;;;;4.69;67.37;102885.88;5018732;28;20087;-47
2022/01/22 12:25:02;;;;;;;1.20;1.10;;;;;;;4.73;68.50;102885.41;5020057;28;20491;-47
2022/01/22 12:27:51;;;;;;;3.30;1.40;;;;;;;4.50;67.71;102885.09;5020844;28;20037;-46
2022/01/22 12:30:33;;;;;;;3.03;1.75;;;;;;;4.59;68.83;102882.47;5020114;28;20069;-47
2022/01/22 12:33:00;;;;;;;4.80;1.88;;;;;;;4.57;68.63;102884.47;5022103;28;20129;-46
2022/01/22 12:35:44;;;;;;;3.33;1.80;;;;;;;4.53;69.06;102884.78;5022374;28;20088;-47
2022/01/22 12:38:21;;;;;;;3.90;1.38;;;;;;;4.37;68.92;102884.66;5022070;28;20025;-46
2022/01/22 12:40:52;;;;;;;4.35;1.90;;;;;;;4.25;69.19;102885.88;5021776;28;20034;-46
2022/01/22 12:43:26;;;;;;;4.22;1.75;;;;;;;4.10;69.78;102884.75;5023305;28;20463;-47
2022/01/22 12:45:59;;;;;;;4.60;2.10;;;;;;;3.88;69.30;102888.72;5025310;28;20067;-46
2022/01/22 12:48:29;;;;;;;2.58;1.55;;;;;;;4.01;70.36;102880.38;5019459;28;20041;-46
2022/01/22 12:51:03;;;;;;;3.78;1.67;;;;;;;4.12;70.10;102880.97;5028347;28;20033;-46
2022/01/22 12:53:29;;;;;;;5.15;1.80;;;;;;;4.08;69.30;102884.91;5025363;28;20036;-47
2022/01/22 12:58:25;;;;;;;9.15;3.95;;;;;;;4.64;69.12;102901.41;5026341;28;20298;-46
2022/01/22 13:00:53;;;;;;;4.72;2.67;;;;;;;4.93;68.54;102896.63;5024395;28;20096;-46
2022/01/22 13:03:51;;;;;;;9.23;2.30;;;;;;;5.12;67.47;102893.72;5025877;28;20479;-47
2022/01/22 13:06:21;;;;;;;3.40;1.40;;;;;;;5.08;67.78;102881.75;4986996;28;20080;-47
2022/01/22 13:08:47;;;;;;;2.65;1.25;;;;;;;4.77;66.48;102894.69;5022599;28;20021;-46
2022/01/22 13:11:18;;;;;;;3.50;1.55;;;;;;;4.77;67.54;102884.06;5026403;28;20049;-46
2022/01/22 13:13:48;;;;;;;3.97;1.60;;;;;;;4.71;68.10;102881.22;5027834;28;20422;-47
2022/01/22 13:16:16;;;;;;;4.35;1.92;;;;;;;4.64;68.42;102886.31;5025908;28;20048;-46
2022/01/22 13:18:46;;;;;;;4.20;1.70;;;;;;;4.48;68.09;102887.03;5027485;28;20037;-46
2022/01/22 13:21:13;;;;;;;3.55;2.22;;;;;;;4.37;68.76;102879.34;5027235;28;20026;-48
2022/01/22 13:23:39;;;;;;;3.60;1.40;;;;;;;4.22;68.06;102876.41;5026917;28;20029;-46
2022/01/22 13:26:07;;;;;;;2.35;1.25;;;;;;;4.16;68.96;102881.50;5026193;28;20222;-47
2022/01/22 13:28:35;;;;;;;2.00;1.25;;;;;;;4.12;68.93;102877.47;5026568;28;20044;-46
2022/01/22 13:31:17;;;;;;;4.10;1.20;;;;;;;4.07;68.95;102880.59;5026962;28;20122;-47